Terminal Aerodrome Forecast
Issued by NWS

Home | Current Version | Previous Version | Text Only | Print | Product List | Glossary On
Versions: 1 2 3 4 5 6 7 8 9 10 11 12 13 14 15 16 17
000
FTUS41 KCAR 071525 AAA
TAFPQI
TAF AMD
KPQI 071525Z 0715/0812 20012G20KT P6SM SCT050 BKN250
     FM080100 19010KT P6SM BKN045
     FM080300 19009KT P6SM BKN020
     FM080600 19008KT P6SM BKN010
     FM081000 19008KT 3SM -SHRA OVC007
      AMD LTD TO CLD VIS AND WIND=

USA.gov is the U.S. government's official web portal to all federal, state and local government web resources and services.